Main page
METAR-TAF:

METAR-TAF

Airports :

Nice, France

Nice Côte d'Azur Airport

latitude: 43-39N, longitude: 007-12E, elevation: 4 m

Current weather observation

The report was made 19 minutes ago, at 21:00 UTC
Wind 8 kt from the North/Northwest
Temperature 6°C
Humidity 45%
Pressure 1023 hPa
Visibility 10 km or more
no clouds below 1500 m and no cumulonimbus

METAR: LFMN 172100Z 33008KT CAVOK 06/M05 Q1023 NOSIG

Time: 22:19 (21:19 UTC)

Forecast

The report was made 1 hour and 19 minutes ago, at 20:00 UTC
Forecast valid from 17 at 21 UTC to 19 at 03 UTC
Wind 10 kt from the North/Northwest
Visibility 10 km or more
no clouds below 1500 m and no cumulonimbus
Becoming
from 18 at 10 UTC to 18 at 12 UTC
Wind 15 kt from the East
Temporary
from 18 at 12 UTC to 18 at 21 UTC
Broken clouds at a height of 9000 ft
Becoming
from 18 at 21 UTC to 18 at 23 UTC
Wind 10 kt from the North/Northwest

TAF: LFMN 172000Z 1721/1903 33010KT CAVOK BECMG 1810/1812 09015KT TEMPO 1812/1821 BKN090 BECMG 1821/1823 34010KT

Weather observations and forecasts of more than 4000 airports (METAR and TAF reports).

The available stations are represented by yellow and red dots on the map.

Hover mouse over dot to see the name of the station.

Then click to see weather observations and forecasts.

To change the map : click on the green buttons with a black cross to zoom in, on the green button with a dash to zoom out, or on the green arrows for adjacent maps.


METAR-TAF: